createdAt,value
2019-05-15T09:12:41.530Z,11.66
2019-05-15T09:15:12.104Z,11.41
2019-05-15T09:17:42.329Z,11.58
2019-05-15T09:20:12.248Z,11.26
2019-05-15T09:22:41.687Z,11.50
2019-05-15T09:25:12.933Z,11.51
2019-05-15T09:27:43.153Z,11.48
2019-05-15T09:30:14.867Z,11.83
2019-05-15T09:32:48.685Z,11.79
2019-05-15T09:35:20.069Z,11.80
2019-05-15T09:37:54.179Z,11.70
2019-05-15T09:40:41.816Z,11.91
2019-05-15T09:42:58.336Z,11.86
2019-05-15T09:45:33.604Z,11.95
2019-05-15T09:48:02.650Z,11.92
2019-05-15T09:50:33.906Z,11.81
2019-05-15T09:53:05.607Z,12.00
2019-05-15T09:55:38.305Z,12.00
2019-05-15T09:58:08.315Z,12.04
2019-05-15T10:00:38.590Z,12.12
2019-05-15T10:03:09.571Z,12.30
2019-05-15T10:05:39.279Z,12.47
2019-05-15T10:08:09.111Z,12.54
2019-05-15T10:10:38.697Z,12.63
2019-05-15T10:13:09.011Z,12.59
2019-05-15T10:15:40.293Z,12.33
2019-05-15T10:18:10.063Z,12.61
2019-05-15T10:20:39.784Z,12.26
2019-05-15T10:23:11.493Z,12.17
2019-05-15T10:25:41.917Z,12.27
2019-05-15T10:28:15.063Z,12.34
2019-05-15T10:30:42.922Z,12.31
2019-05-15T10:33:12.243Z,12.12
2019-05-15T10:35:43.565Z,12.08
2019-05-15T10:38:16.057Z,11.96
2019-05-15T10:40:59.880Z,12.06
2019-05-15T10:43:20.707Z,12.02
2019-05-15T10:45:54.194Z,12.06
2019-05-15T10:48:32.169Z,11.98
2019-05-15T10:51:07.165Z,11.91
2019-05-15T10:53:33.114Z,11.92
2019-05-15T10:56:04.547Z,11.93
2019-05-15T10:58:35.549Z,11.82
2019-05-15T11:01:04.892Z,11.66
2019-05-15T11:03:35.064Z,11.63
2019-05-15T11:06:04.631Z,11.76
2019-05-15T11:08:40.049Z,11.59
2019-05-15T11:11:05.737Z,11.61
2019-05-15T11:13:35.063Z,11.45
2019-05-15T11:16:04.611Z,11.44
2019-05-15T11:18:34.060Z,11.31
2019-05-15T11:21:08.212Z,11.22
2019-05-15T11:23:39.448Z,11.34
2019-05-15T11:26:08.925Z,11.18
2019-05-15T11:28:40.877Z,11.32
2019-05-15T11:31:10.656Z,11.17
2019-05-15T11:33:40.414Z,11.21
2019-05-15T11:36:10.052Z,11.34
2019-05-15T11:38:40.273Z,11.47
2019-05-15T11:41:09.577Z,11.47
2019-05-15T11:43:39.200Z,11.32
2019-05-15T11:46:09.949Z,11.36
2019-05-15T11:48:41.439Z,11.18
2019-05-15T11:51:11.090Z,11.33
2019-05-15T11:53:40.506Z,11.27
2019-05-15T11:56:10.144Z,11.50
2019-05-15T11:58:41.151Z,11.67
2019-05-15T12:01:10.904Z,11.82
2019-05-15T12:03:40.309Z,11.36
2019-05-15T12:06:18.719Z,11.69
2019-05-15T12:08:40.837Z,11.83
2019-05-15T12:11:26.975Z,11.97
2019-05-15T12:13:42.208Z,12.04
2019-05-15T12:16:11.767Z,11.98
2019-05-15T12:18:48.288Z,12.00
2019-05-15T12:21:19.740Z,11.50
2019-05-15T12:23:48.757Z,11.56
2019-05-15T12:26:18.322Z,11.52
2019-05-15T12:28:49.324Z,11.62
2019-05-15T12:31:24.364Z,11.70
2019-05-15T12:33:50.311Z,11.64
2019-05-15T12:38:51.235Z,11.80
2019-05-15T13:01:32.014Z,11.44
2019-05-15T13:04:01.810Z,11.54
2019-05-15T13:06:39.988Z,11.44
2019-05-15T13:09:04.377Z,11.57
2019-05-15T13:11:34.387Z,11.63
2019-05-15T13:14:08.177Z,11.74
2019-05-15T13:16:39.029Z,11.62
2019-05-15T13:19:08.902Z,11.64
2019-05-15T13:21:41.336Z,11.77
2019-05-15T13:24:10.263Z,11.84
2019-05-15T13:26:41.262Z,11.77
2019-05-15T13:29:10.969Z,11.78
2019-05-15T13:31:42.180Z,11.61
2019-05-15T13:34:13.486Z,11.80
2019-05-15T13:36:43.448Z,11.84
2019-05-15T13:39:14.901Z,11.99
2019-05-15T13:41:44.731Z,11.97
2019-05-15T13:44:14.386Z,11.97
2019-05-15T13:46:44.075Z,11.99
2019-05-15T13:49:13.802Z,11.89
2019-05-15T13:51:43.174Z,11.74
2019-05-15T13:54:12.834Z,11.77
2019-05-15T13:56:42.556Z,11.78
2019-05-15T13:59:14.147Z,11.79
2019-05-15T14:01:43.501Z,11.82
2019-05-15T14:04:12.910Z,11.74
2019-05-15T14:06:44.987Z,11.80
2019-05-15T14:09:16.461Z,11.89
2019-05-15T14:11:49.129Z,11.87
2019-05-15T14:14:17.184Z,11.90
2019-05-15T14:16:48.939Z,11.92
2019-05-15T14:19:18.097Z,11.87
2019-05-15T14:21:49.030Z,11.83
2019-05-15T14:24:21.391Z,11.52
2019-05-15T14:27:12.972Z,11.60
2019-05-15T14:29:35.208Z,11.71
2019-05-15T14:32:11.246Z,11.76
2019-05-15T14:35:02.258Z,11.83
2019-05-15T14:38:01.580Z,11.82
2019-05-15T14:47:09.934Z,11.79
2019-05-15T14:49:45.033Z,11.81
2019-05-15T14:52:09.842Z,11.83
2019-05-15T14:54:39.101Z,11.76
2019-05-15T14:57:08.748Z,11.69
2019-05-15T14:59:38.286Z,11.57
2019-05-15T15:02:09.088Z,11.56
2019-05-15T15:04:39.219Z,11.66
2019-05-15T15:07:08.822Z,11.69
2019-05-15T15:09:37.964Z,11.70
2019-05-15T15:12:08.208Z,11.71
2019-05-15T15:14:37.928Z,11.62
2019-05-15T15:17:07.173Z,11.61
2019-05-15T15:19:38.671Z,11.69
2019-05-15T15:22:08.693Z,11.79
2019-05-15T15:24:39.015Z,11.86
2019-05-15T15:27:08.431Z,11.94
2019-05-15T15:29:38.887Z,11.96
2019-05-15T15:32:08.154Z,11.94
2019-05-15T15:34:38.925Z,11.80
2019-05-15T15:37:08.581Z,11.90
2019-05-15T15:39:38.644Z,11.94
2019-05-15T15:42:08.571Z,11.90
2019-05-15T15:44:38.117Z,11.98
2019-05-15T15:47:08.688Z,12.02
2019-05-15T15:49:38.749Z,12.07
2019-05-15T15:52:08.740Z,12.03
2019-05-15T15:54:39.478Z,12.08
2019-05-15T15:57:08.728Z,12.03
2019-05-15T15:59:38.609Z,12.07
2019-05-15T16:02:08.843Z,12.12
2019-05-15T16:04:39.215Z,12.01
2019-05-15T16:07:09.674Z,12.08
2019-05-15T16:09:38.869Z,12.17
2019-05-15T16:12:09.642Z,12.22
2019-05-15T16:14:38.969Z,12.24
2019-05-15T16:17:08.621Z,12.28
2019-05-15T16:19:38.937Z,12.34
2019-05-15T16:22:08.837Z,12.34
2019-05-15T16:24:38.667Z,12.28
2019-05-15T16:27:09.664Z,12.24
2019-05-15T16:29:39.355Z,12.29
2019-05-15T16:32:08.828Z,12.26
2019-05-15T16:34:39.306Z,12.33
2019-05-15T16:37:09.092Z,12.34
2019-05-15T16:39:38.356Z,12.38
2019-05-15T16:42:07.570Z,12.40
2019-05-15T16:44:38.393Z,12.38
2019-05-15T16:47:08.425Z,12.43
2019-05-15T16:49:39.047Z,12.45
2019-05-15T16:52:09.213Z,12.49
2019-05-15T16:54:38.670Z,12.52
2019-05-15T16:57:09.962Z,12.55
2019-05-15T16:59:39.102Z,12.51
2019-05-15T17:02:08.934Z,12.58
2019-05-15T17:04:38.307Z,12.59
2019-05-15T17:07:07.820Z,12.67
2019-05-15T17:09:38.700Z,12.73
2019-05-15T17:12:08.700Z,12.72
2019-05-15T17:14:38.800Z,12.71
2019-05-15T17:17:08.111Z,12.74
2019-05-15T17:19:37.479Z,12.75
2019-05-15T17:22:09.291Z,12.78
2019-05-15T17:24:38.747Z,12.84
2019-05-15T17:27:10.372Z,12.90
2019-05-15T17:29:38.876Z,12.88
2019-05-15T17:32:08.567Z,12.90
2019-05-15T17:34:38.106Z,12.92
2019-05-15T17:37:07.304Z,13.05
2019-05-15T17:39:38.920Z,13.09
2019-05-15T17:42:07.175Z,13.08
2019-05-15T17:44:38.239Z,13.13
2019-05-15T17:47:09.729Z,13.13
2019-05-15T17:49:38.644Z,13.17
2019-05-15T17:52:08.891Z,13.20
2019-05-15T17:54:38.100Z,13.14
2019-05-15T17:57:09.204Z,13.20
2019-05-15T17:59:38.411Z,13.21
2019-05-15T18:02:08.542Z,13.19
2019-05-15T18:04:38.762Z,13.23
2019-05-15T18:07:08.603Z,13.23
2019-05-15T18:09:50.372Z,13.20
2019-05-15T18:12:11.248Z,13.22
2019-05-15T18:14:39.606Z,13.22
2019-05-15T18:17:08.789Z,13.28
2019-05-15T18:19:38.105Z,13.32
2019-05-15T18:22:08.927Z,13.33
2019-05-15T18:24:38.389Z,13.31
2019-05-15T18:27:08.060Z,13.38
2019-05-15T18:29:38.663Z,13.41
2019-05-15T18:32:08.624Z,13.49
2019-05-15T18:34:39.592Z,13.46
2019-05-15T18:37:08.848Z,13.42
2019-05-15T18:39:38.969Z,13.52
2019-05-15T18:42:08.319Z,13.57
2019-05-15T18:44:39.359Z,13.57
2019-05-15T18:47:08.667Z,13.58
2019-05-15T18:49:38.097Z,13.69
2019-05-15T18:52:08.793Z,13.70
2019-05-15T18:54:38.725Z,13.80
2019-05-15T18:57:08.573Z,13.71
2019-05-15T18:59:37.943Z,13.60
2019-05-15T19:02:08.026Z,13.63
2019-05-15T19:04:38.347Z,13.71
2019-05-15T19:07:08.906Z,13.67
2019-05-15T19:09:38.603Z,13.71
2019-05-15T19:12:09.244Z,13.69
2019-05-15T19:14:39.495Z,13.70
2019-05-15T19:17:09.145Z,13.70
2019-05-15T19:19:38.826Z,13.68
2019-05-15T19:22:08.143Z,13.81
2019-05-15T19:24:39.871Z,13.78
2019-05-15T19:27:08.251Z,13.77
2019-05-15T19:29:37.830Z,13.79
2019-05-15T19:32:10.656Z,13.80
2019-05-15T19:34:38.769Z,13.83
2019-05-15T19:37:08.007Z,13.79
2019-05-15T19:39:38.539Z,13.85
2019-05-15T19:42:08.939Z,13.82
2019-05-15T19:44:38.109Z,13.84
2019-05-15T19:47:07.966Z,13.79
2019-05-15T19:49:37.858Z,13.74
2019-05-15T19:52:08.541Z,13.77
2019-05-15T19:54:37.904Z,13.77
2019-05-15T19:57:08.026Z,13.70
2019-05-15T19:59:38.163Z,13.67
2019-05-15T20:02:08.538Z,13.68
2019-05-15T20:04:38.569Z,13.70
2019-05-15T20:07:08.078Z,13.71
2019-05-15T20:09:38.328Z,13.71
2019-05-15T20:12:09.069Z,13.73
2019-05-15T20:14:38.408Z,13.79
2019-05-15T20:17:08.064Z,13.80
2019-05-15T20:19:38.305Z,13.75
2019-05-15T20:22:08.032Z,13.81
2019-05-15T20:24:38.177Z,13.80
2019-05-15T20:27:08.562Z,13.76
2019-05-15T20:29:38.316Z,13.70
2019-05-15T20:32:07.670Z,13.76
2019-05-15T20:34:37.934Z,13.77
2019-05-15T20:37:07.364Z,13.80
2019-05-15T20:39:38.194Z,13.80
2019-05-15T20:42:08.836Z,13.74
2019-05-15T20:44:38.031Z,13.71
2019-05-15T20:47:08.307Z,13.78
2019-05-15T20:49:37.858Z,13.76
2019-05-15T20:52:07.019Z,13.81
2019-05-15T20:54:38.614Z,13.83
2019-05-15T20:57:08.826Z,13.74
2019-05-15T20:59:38.688Z,13.75
2019-05-15T21:02:08.212Z,13.74
2019-05-15T21:04:38.518Z,13.71
2019-05-15T21:07:07.898Z,13.78
2019-05-15T21:09:39.516Z,13.80
2019-05-15T21:12:09.843Z,13.87
2019-05-15T21:14:40.106Z,13.87
2019-05-15T21:17:09.372Z,13.79
2019-05-15T21:19:38.688Z,13.87
2019-05-15T21:22:08.312Z,13.84
2019-05-15T21:24:38.626Z,13.88
2019-05-15T21:27:07.724Z,13.84
2019-05-15T21:29:38.175Z,13.86
2019-05-15T21:32:08.455Z,13.93
2019-05-15T21:34:43.893Z,13.88
2019-05-15T21:37:08.789Z,13.91
2019-05-15T21:39:39.192Z,13.89
2019-05-15T21:42:08.986Z,13.86
2019-05-15T21:44:38.308Z,13.79
2019-05-15T21:47:08.174Z,13.76
2019-05-15T21:49:38.798Z,13.76
2019-05-15T21:52:08.151Z,13.75
2019-05-15T21:54:38.608Z,13.73
2019-05-15T21:57:28.780Z,13.73
2019-05-15T21:59:38.527Z,13.76
2019-05-15T22:02:07.636Z,13.79
2019-05-15T22:04:49.063Z,13.86
2019-05-15T22:07:09.031Z,13.84
2019-05-15T22:09:38.301Z,13.85
2019-05-15T22:12:07.421Z,13.86
2019-05-15T22:14:37.888Z,13.87
2019-05-15T22:17:09.211Z,13.81
2019-05-15T22:19:38.503Z,13.90
2019-05-15T22:22:08.767Z,13.85
2019-05-15T22:24:38.029Z,13.81
2019-05-15T22:27:09.478Z,13.86
2019-05-15T22:29:38.035Z,13.83
2019-05-15T22:32:08.190Z,13.82
2019-05-15T22:34:37.388Z,13.80
2019-05-15T22:37:06.944Z,13.81
2019-05-15T22:39:38.518Z,13.81
2019-05-15T22:42:08.220Z,13.84
2019-05-15T22:44:38.599Z,13.83
2019-05-15T22:47:07.803Z,13.86
2019-05-15T22:49:38.073Z,13.92
2019-05-15T22:52:08.606Z,13.91
2019-05-15T22:54:38.691Z,13.94
2019-05-15T22:57:07.884Z,13.89
2019-05-15T22:59:38.276Z,13.93
2019-05-15T23:02:09.274Z,13.95
2019-05-15T23:04:38.204Z,13.91
2019-05-15T23:07:08.185Z,13.94
2019-05-15T23:09:38.385Z,13.88
2019-05-15T23:12:11.323Z,13.91
2019-05-15T23:14:39.229Z,13.91
2019-05-15T23:17:08.321Z,13.96
2019-05-15T23:19:38.580Z,13.91
2019-05-15T23:22:08.347Z,13.95
2019-05-15T23:24:38.751Z,13.91
2019-05-15T23:27:08.852Z,13.94
2019-05-15T23:29:38.703Z,13.91
2019-05-15T23:32:07.993Z,13.99
2019-05-15T23:34:38.602Z,13.96
2019-05-15T23:37:08.344Z,14.00
2019-05-15T23:39:38.046Z,14.06
2019-05-15T23:42:08.857Z,14.08
2019-05-15T23:44:38.183Z,14.10
2019-05-15T23:47:07.433Z,14.12
2019-05-15T23:49:38.224Z,14.10
2019-05-15T23:52:08.880Z,14.07
2019-05-15T23:54:38.627Z,13.99
2019-05-15T23:57:08.967Z,13.99
2019-05-15T23:59:38.492Z,14.00
